createdAt,value
2023-10-15T07:05:22.368Z,100.00
2023-10-15T07:05:38.182Z,100.00
2023-10-15T07:05:55.743Z,100.00
2023-10-15T07:06:10.339Z,100.00
2023-10-15T07:06:27.225Z,100.00
2023-10-15T07:06:43.425Z,100.00
2023-10-15T07:06:56.553Z,100.00
2023-10-15T07:07:09.345Z,100.00
2023-10-15T07:07:21.860Z,100.00
2023-10-15T07:07:34.303Z,100.00
2023-10-15T07:07:47.908Z,100.00
2023-10-15T07:08:00.696Z,100.00
2023-10-15T07:08:16.523Z,100.00
2023-10-15T07:08:31.796Z,100.00
2023-10-15T07:08:44.894Z,100.00
2023-10-15T07:08:58.225Z,100.00
2023-10-15T07:09:13.033Z,100.00
2023-10-15T07:09:30.040Z,100.00
2023-10-15T07:09:46.110Z,100.00
2023-10-15T07:10:02.694Z,100.00
2023-10-15T07:10:15.934Z,100.00
2023-10-15T07:10:31.064Z,100.00
2023-10-15T07:10:44.005Z,100.00
2023-10-15T07:11:00.417Z,100.00
2023-10-15T07:11:15.742Z,100.00
2023-10-15T07:11:28.032Z,100.00
2023-10-15T07:11:41.906Z,100.00
2023-10-15T07:11:57.219Z,100.00
2023-10-15T07:12:16.588Z,100.00
2023-10-15T07:12:29.573Z,100.00
2023-10-15T07:12:41.905Z,100.00
2023-10-15T07:12:54.848Z,100.00
2023-10-15T07:13:08.380Z,100.00
2023-10-15T07:13:22.096Z,100.00
2023-10-15T07:13:48.001Z,100.00
2023-10-15T07:14:05.269Z,100.00
2023-10-15T07:14:18.179Z,100.00
2023-10-15T07:14:31.568Z,100.00
2023-10-15T07:14:45.120Z,100.00
2023-10-15T07:14:57.885Z,100.00
2023-10-15T07:15:11.878Z,100.00
2023-10-15T07:15:26.947Z,100.00
2023-10-15T07:15:43.164Z,100.00
2023-10-15T07:15:58.171Z,100.00
2023-10-15T07:16:15.494Z,100.00
2023-10-15T07:16:28.878Z,100.00
2023-10-15T07:16:43.566Z,100.00
2023-10-15T07:16:59.519Z,100.00
2023-10-15T07:17:17.912Z,100.00
2023-10-15T07:17:30.975Z,100.00
2023-10-15T07:17:51.192Z,100.00
2023-10-15T07:18:15.195Z,100.00
2023-10-15T07:22:05.436Z,100.00
2023-10-15T07:22:18.828Z,100.00
2023-10-15T07:22:31.288Z,100.00
2023-10-15T07:22:46.831Z,100.00
2023-10-15T07:23:01.818Z,100.00
2023-10-15T07:23:14.409Z,100.00
2023-10-15T07:23:26.847Z,100.00
2023-10-15T07:23:42.214Z,100.00
2023-10-15T07:23:55.309Z,100.00
2023-10-15T07:24:09.276Z,100.00
2023-10-15T07:24:21.836Z,100.00
2023-10-15T07:24:34.288Z,100.00
2023-10-15T07:24:49.188Z,100.00
2023-10-15T07:25:01.259Z,100.00
2023-10-15T07:25:17.172Z,100.00
2023-10-15T07:25:30.114Z,100.00
2023-10-15T07:25:45.367Z,100.00
2023-10-15T07:26:10.227Z,100.00
2023-10-15T07:26:31.766Z,100.00
2023-10-15T07:26:44.011Z,100.00
2023-10-15T07:26:56.355Z,100.00
2023-10-15T07:27:08.875Z,100.00
2023-10-15T07:27:22.041Z,100.00
2023-10-15T07:27:34.941Z,100.00
2023-10-15T07:27:49.104Z,100.00
2023-10-15T07:28:02.157Z,100.00
2023-10-15T07:28:17.409Z,100.00
2023-10-15T07:28:30.312Z,100.00
2023-10-15T07:28:46.079Z,100.00
2023-10-15T07:28:59.608Z,100.00
2023-10-15T07:29:11.972Z,100.00
2023-10-15T07:29:25.213Z,100.00
2023-10-15T07:29:38.043Z,100.00
2023-10-15T07:29:50.657Z,100.00
2023-10-15T07:30:04.233Z,100.00
2023-10-15T07:30:22.209Z,100.00
2023-10-15T07:30:36.266Z,100.00
2023-10-15T07:30:51.110Z,100.00
2023-10-15T07:31:06.294Z,100.00
2023-10-15T07:31:23.255Z,100.00
2023-10-15T07:31:37.522Z,100.00
2023-10-15T07:31:50.859Z,100.00
2023-10-15T07:32:06.467Z,100.00
2023-10-15T07:32:19.807Z,100.00
2023-10-15T07:32:35.662Z,100.00
2023-10-15T07:32:53.131Z,100.00
2023-10-15T07:33:08.650Z,100.00
2023-10-15T07:33:30.337Z,100.00
2023-10-15T07:33:47.514Z,100.00
2023-10-15T07:34:05.305Z,100.00
2023-10-15T07:34:20.069Z,100.00
2023-10-15T07:34:33.688Z,100.00
2023-10-15T07:34:49.333Z,100.00
2023-10-15T07:35:02.690Z,100.00
2023-10-15T07:35:16.586Z,100.00
2023-10-15T07:35:30.191Z,100.00
2023-10-15T07:35:45.142Z,100.00
2023-10-15T07:35:58.167Z,100.00
2023-10-15T07:36:10.599Z,100.00
2023-10-15T07:36:25.921Z,100.00
2023-10-15T07:36:38.810Z,100.00
2023-10-15T07:36:51.213Z,100.00
2023-10-15T07:37:04.919Z,100.00
2023-10-15T07:37:17.075Z,100.00
2023-10-15T07:37:32.795Z,100.00
2023-10-15T07:38:17.931Z,100.00
2023-10-15T07:38:31.920Z,100.00
2023-10-15T07:38:44.719Z,100.00
2023-10-15T07:38:56.900Z,100.00
2023-10-15T07:39:10.935Z,100.00
2023-10-15T07:39:23.941Z,100.00
2023-10-15T07:39:35.986Z,100.00
2023-10-15T07:39:48.036Z,100.00
2023-10-15T07:40:00.050Z,100.00
2023-10-15T07:40:14.718Z,100.00
2023-10-15T07:40:29.238Z,100.00
2023-10-15T07:40:42.457Z,100.00
2023-10-15T07:40:57.132Z,100.00
2023-10-15T07:41:10.257Z,100.00
2023-10-15T07:41:22.797Z,100.00
2023-10-15T07:41:35.214Z,100.00
2023-10-15T07:41:47.238Z,100.00
2023-10-15T07:41:59.263Z,100.00
2023-10-15T07:42:11.158Z,100.00
2023-10-15T07:42:23.444Z,100.00
2023-10-15T07:42:35.428Z,100.00
2023-10-15T07:42:49.205Z,100.00
2023-10-15T07:43:01.527Z,100.00
2023-10-15T07:43:14.416Z,100.00
2023-10-15T07:43:34.705Z,100.00
2023-10-15T07:43:47.117Z,100.00
2023-10-15T07:43:59.281Z,100.00
2023-10-15T07:44:12.649Z,100.00
2023-10-15T07:44:25.107Z,100.00
2023-10-15T07:44:37.430Z,100.00
2023-10-15T07:44:49.980Z,100.00
2023-10-15T07:45:02.133Z,100.00
2023-10-15T07:45:14.695Z,100.00
2023-10-15T07:45:28.837Z,100.00
2023-10-15T07:45:41.169Z,100.00
2023-10-15T07:45:53.361Z,100.00
2023-10-15T07:46:05.531Z,100.00
2023-10-15T07:46:17.913Z,100.00
2023-10-15T07:46:31.068Z,100.00
2023-10-15T07:46:43.825Z,100.00
2023-10-15T07:46:56.491Z,100.00
2023-10-15T07:47:09.988Z,100.00
2023-10-15T07:47:23.396Z,100.00
2023-10-15T07:47:37.314Z,100.00
2023-10-15T07:47:58.075Z,100.00
2023-10-15T07:48:10.942Z,100.00
2023-10-15T07:48:24.983Z,100.00
2023-10-15T07:48:42.848Z,100.00
2023-10-15T07:49:10.550Z,100.00
2023-10-15T07:49:24.776Z,100.00
2023-10-15T07:49:37.739Z,100.00
2023-10-15T07:49:54.293Z,100.00
2023-10-15T07:50:12.357Z,100.00
2023-10-15T07:50:25.567Z,100.00
2023-10-15T07:50:38.942Z,100.00
2023-10-15T07:50:53.490Z,100.00
2023-10-15T07:51:06.275Z,100.00
2023-10-15T07:51:23.040Z,100.00
2023-10-15T07:51:36.483Z,100.00
2023-10-15T07:51:51.360Z,100.00
2023-10-15T07:52:08.425Z,100.00
2023-10-15T07:52:20.995Z,100.00
2023-10-15T07:52:33.933Z,100.00
2023-10-15T07:52:47.445Z,100.00
2023-10-15T07:53:00.960Z,100.00
2023-10-15T07:53:14.280Z,100.00
2023-10-15T07:53:27.314Z,100.00
2023-10-15T07:53:40.599Z,100.00
2023-10-15T07:53:55.575Z,100.00
2023-10-15T07:54:09.291Z,100.00
2023-10-15T07:54:25.903Z,100.00
2023-10-15T07:54:39.049Z,100.00
2023-10-15T07:54:52.698Z,100.00
2023-10-15T07:55:06.736Z,100.00
2023-10-15T07:55:26.667Z,100.00
2023-10-15T07:55:44.093Z,100.00
2023-10-15T07:56:09.991Z,100.00
2023-10-15T07:56:27.206Z,100.00
2023-10-15T07:56:51.177Z,100.00
2023-10-15T07:57:29.343Z,100.00
2023-10-15T07:57:41.220Z,100.00
2023-10-15T07:57:53.613Z,100.00
2023-10-15T07:58:06.298Z,100.00
2023-10-15T07:58:20.691Z,100.00
2023-10-15T07:58:35.946Z,100.00
2023-10-15T07:58:51.770Z,100.00
2023-10-15T07:59:07.966Z,100.00
2023-10-15T07:59:22.184Z,100.00
2023-10-15T07:59:36.014Z,100.00
2023-10-15T07:59:53.217Z,100.00
2023-10-15T08:00:08.083Z,100.00
2023-10-15T08:00:24.867Z,100.00
2023-10-15T08:00:37.137Z,100.00
2023-10-15T08:01:05.278Z,100.00
2023-10-15T08:01:23.348Z,100.00
2023-10-15T08:01:39.148Z,100.00
2023-10-15T08:01:54.303Z,100.00
2023-10-15T08:02:11.926Z,100.00
2023-10-15T08:02:56.799Z,100.00
2023-10-15T08:03:10.270Z,100.00
2023-10-15T08:03:23.708Z,100.00
2023-10-15T08:03:44.793Z,100.00
2023-10-15T08:04:18.477Z,100.00
2023-10-15T08:04:37.192Z,100.00
2023-10-15T08:05:41.843Z,100.00
2023-10-15T08:06:01.376Z,100.00
2023-10-15T08:06:16.775Z,100.00
2023-10-15T08:07:04.522Z,100.00
2023-10-15T08:07:26.189Z,100.00
2023-10-15T08:07:40.046Z,100.00
2023-10-15T08:07:55.717Z,100.00
2023-10-15T08:08:10.876Z,100.00
2023-10-15T08:08:23.731Z,100.00
2023-10-15T08:09:03.901Z,100.00
2023-10-15T08:09:16.924Z,100.00
2023-10-15T08:10:58.254Z,100.00
2023-10-15T08:11:11.733Z,100.00
2023-10-15T08:11:25.730Z,100.00
2023-10-15T08:11:40.157Z,100.00
2023-10-15T08:11:53.232Z,100.00
2023-10-15T08:12:06.479Z,100.00
2023-10-15T08:12:29.096Z,100.00
2023-10-15T08:12:44.792Z,100.00
2023-10-15T08:12:58.618Z,100.00
2023-10-15T08:13:11.060Z,100.00
2023-10-15T08:13:25.371Z,100.00
2023-10-15T08:13:40.884Z,100.00
2023-10-15T08:13:53.854Z,100.00
2023-10-15T08:14:14.156Z,100.00
2023-10-15T08:14:27.412Z,100.00
2023-10-15T08:14:40.752Z,100.00
2023-10-15T08:14:54.719Z,100.00
2023-10-15T08:15:10.050Z,100.00
2023-10-15T08:15:22.815Z,100.00
2023-10-15T08:15:35.885Z,100.00
2023-10-15T08:15:49.516Z,100.00
2023-10-15T08:16:02.568Z,100.00
2023-10-15T08:16:15.203Z,100.00
2023-10-15T08:16:28.210Z,100.00
2023-10-15T08:16:41.597Z,100.00
2023-10-15T08:16:54.125Z,100.00
2023-10-15T08:17:07.236Z,100.00
2023-10-15T08:17:21.032Z,100.00
2023-10-15T08:17:34.211Z,100.00
2023-10-15T08:17:48.158Z,100.00
2023-10-15T08:18:04.501Z,100.00
2023-10-15T08:18:18.201Z,100.00
2023-10-15T08:18:44.830Z,100.00
2023-10-15T08:19:00.430Z,100.00
2023-10-15T08:19:14.006Z,100.00
2023-10-15T08:19:26.868Z,100.00
2023-10-15T08:19:40.642Z,100.00
2023-10-15T08:19:54.895Z,100.00
2023-10-15T08:20:09.828Z,100.00
2023-10-15T08:20:23.035Z,100.00
2023-10-15T08:20:37.631Z,100.00
2023-10-15T08:20:52.673Z,100.00
2023-10-15T08:21:06.523Z,100.00
2023-10-15T08:21:20.307Z,100.00
2023-10-15T08:21:35.066Z,100.00
2023-10-15T08:21:51.355Z,100.00
2023-10-15T08:22:12.871Z,100.00
2023-10-15T08:22:37.466Z,100.00
2023-10-15T08:22:53.324Z,100.00
2023-10-15T08:23:15.183Z,100.00
2023-10-15T08:23:56.915Z,100.00
2023-10-15T08:24:12.468Z,100.00
2023-10-15T08:24:25.420Z,100.00
2023-10-15T08:24:38.155Z,100.00
2023-10-15T08:24:50.951Z,100.00
2023-10-15T08:25:03.607Z,100.00
2023-10-15T08:25:16.740Z,100.00
2023-10-15T08:25:31.607Z,100.00
2023-10-15T08:25:44.368Z,100.00
2023-10-15T08:25:56.556Z,100.00
2023-10-15T08:26:09.256Z,100.00
2023-10-15T08:26:21.540Z,100.00
2023-10-15T08:26:34.598Z,100.00
2023-10-15T08:26:47.084Z,100.00
2023-10-15T08:27:01.015Z,100.00
2023-10-15T08:27:13.951Z,100.00
2023-10-15T08:27:27.243Z,100.00
2023-10-15T08:27:39.782Z,100.00
2023-10-15T08:27:52.169Z,100.00
2023-10-15T08:28:05.664Z,100.00
2023-10-15T08:28:20.241Z,100.00
2023-10-15T08:28:38.059Z,100.00
2023-10-15T08:28:50.576Z,100.00
2023-10-15T08:29:03.112Z,100.00
2023-10-15T08:29:18.502Z,100.00
2023-10-15T08:29:33.688Z,100.00
2023-10-15T08:29:55.517Z,100.00
2023-10-15T08:30:10.763Z,100.00
2023-10-15T08:30:23.426Z,100.00
2023-10-15T08:30:38.028Z,100.00
2023-10-15T08:30:52.783Z,100.00
2023-10-15T08:31:05.668Z,100.00
2023-10-15T08:31:19.931Z,100.00
2023-10-15T08:32:03.647Z,100.00
2023-10-15T08:32:15.790Z,100.00
2023-10-15T08:32:28.456Z,100.00
2023-10-15T08:32:41.366Z,100.00
2023-10-15T08:32:53.489Z,100.00
2023-10-15T08:33:06.659Z,100.00
2023-10-15T08:33:18.841Z,100.00
2023-10-15T08:33:31.043Z,100.00
2023-10-15T08:33:46.763Z,100.00
2023-10-15T08:34:01.275Z,100.00
2023-10-15T08:34:13.284Z,100.00
2023-10-15T08:34:25.730Z,100.00
2023-10-15T08:34:38.141Z,100.00
2023-10-15T08:34:50.878Z,100.00
2023-10-15T08:35:03.807Z,100.00
2023-10-15T08:35:17.339Z,100.00
2023-10-15T08:35:29.645Z,100.00
2023-10-15T08:35:41.872Z,100.00
2023-10-15T08:35:54.367Z,100.00
2023-10-15T08:36:07.213Z,100.00
2023-10-15T08:36:19.491Z,100.00
2023-10-15T08:36:32.094Z,100.00
2023-10-15T08:36:44.219Z,100.00
2023-10-15T08:36:56.303Z,100.00
2023-10-15T08:37:08.636Z,100.00
2023-10-15T08:37:20.987Z,100.00
2023-10-15T08:37:35.019Z,100.00
2023-10-15T08:37:47.817Z,100.00
2023-10-15T08:38:00.081Z,100.00
2023-10-15T08:38:12.290Z,100.00
2023-10-15T08:38:24.619Z,100.00
2023-10-15T08:38:36.917Z,100.00
2023-10-15T08:38:49.567Z,100.00
2023-10-15T08:39:12.701Z,100.00
2023-10-15T08:39:37.791Z,100.00
2023-10-15T08:39:52.950Z,100.00
2023-10-15T08:40:10.059Z,100.00
2023-10-15T08:40:28.440Z,100.00
2023-10-15T08:40:41.732Z,100.00
2023-10-15T08:40:57.991Z,100.00
2023-10-15T08:41:13.647Z,100.00
2023-10-15T08:41:29.368Z,100.00
2023-10-15T08:41:44.935Z,100.00
2023-10-15T08:41:59.966Z,100.00
2023-10-15T08:42:15.370Z,100.00
2023-10-15T08:42:32.342Z,100.00
2023-10-15T08:42:59.624Z,100.00
2023-10-15T08:43:20.671Z,100.00
2023-10-15T08:43:33.468Z,100.00
2023-10-15T08:43:47.304Z,100.00
2023-10-15T08:44:00.386Z,100.00
2023-10-15T08:44:16.397Z,100.00
2023-10-15T08:44:30.190Z,100.00
2023-10-15T08:44:44.837Z,100.00
2023-10-15T08:45:00.363Z,100.00
2023-10-15T08:45:13.919Z,100.00
2023-10-15T08:45:27.445Z,100.00
2023-10-15T08:45:40.754Z,100.00
2023-10-15T08:45:55.046Z,100.00
2023-10-15T08:46:09.003Z,100.00
2023-10-15T08:46:23.185Z,100.00
2023-10-15T08:46:40.227Z,100.00
2023-10-15T08:46:55.409Z,100.00
2023-10-15T08:47:11.540Z,100.00
2023-10-15T08:47:26.517Z,100.00
2023-10-15T08:47:40.806Z,100.00
2023-10-15T08:47:55.512Z,100.00
2023-10-15T08:48:12.226Z,100.00
2023-10-15T08:48:26.003Z,100.00
2023-10-15T08:48:43.486Z,100.00
2023-10-15T08:48:57.196Z,100.00
2023-10-15T08:49:09.852Z,100.00
2023-10-15T08:49:28.998Z,100.00
2023-10-15T08:49:50.697Z,100.00
2023-10-15T08:50:04.362Z,100.00
2023-10-15T08:50:18.079Z,100.00
2023-10-15T08:50:31.983Z,100.00
2023-10-15T08:50:48.929Z,100.00
2023-10-15T08:51:03.389Z,100.00
2023-10-15T08:51:17.922Z,100.00
2023-10-15T08:51:30.960Z,100.00
2023-10-15T08:51:44.896Z,100.00
2023-10-15T08:52:03.314Z,100.00
2023-10-15T08:52:19.363Z,100.00
2023-10-15T08:52:33.132Z,100.00
2023-10-15T08:52:49.643Z,100.00
2023-10-15T08:53:02.494Z,100.00
2023-10-15T08:53:15.564Z,100.00
2023-10-15T08:53:29.612Z,100.00
2023-10-15T08:53:44.280Z,100.00
2023-10-15T08:54:00.662Z,100.00
2023-10-15T08:54:15.319Z,100.00
2023-10-15T08:54:29.363Z,100.00
2023-10-15T08:54:50.048Z,100.00
2023-10-15T08:55:02.660Z,100.00
2023-10-15T08:55:15.954Z,100.00
2023-10-15T08:55:28.861Z,100.00
2023-10-15T08:55:43.347Z,100.00
2023-10-15T08:55:56.423Z,100.00
2023-10-15T08:56:10.958Z,100.00
2023-10-15T08:56:23.527Z,100.00
2023-10-15T08:56:39.723Z,100.00
2023-10-15T08:56:53.967Z,100.00
2023-10-15T08:57:07.871Z,100.00
2023-10-15T08:57:20.969Z,100.00
2023-10-15T08:57:33.043Z,100.00
2023-10-15T08:57:46.574Z,100.00
2023-10-15T08:58:04.981Z,100.00
2023-10-15T08:58:21.790Z,100.00
2023-10-15T08:58:35.938Z,100.00
2023-10-15T08:58:51.693Z,100.00
2023-10-15T08:59:04.366Z,100.00
2023-10-15T08:59:17.634Z,100.00
2023-10-15T08:59:31.738Z,100.00
2023-10-15T08:59:45.144Z,100.00
2023-10-15T08:59:59.550Z,100.00
2023-10-15T09:00:24.778Z,100.00
2023-10-15T09:00:43.549Z,100.00
2023-10-15T09:00:56.660Z,100.00
2023-10-15T09:01:10.654Z,100.00
2023-10-15T09:01:24.236Z,100.00
2023-10-15T09:01:38.634Z,100.00
2023-10-15T09:01:52.679Z,100.00
2023-10-15T09:02:06.678Z,100.00
2023-10-15T09:02:21.421Z,100.00
2023-10-15T09:02:34.894Z,100.00
2023-10-15T09:02:48.422Z,100.00
2023-10-15T09:03:05.627Z,100.00
2023-10-15T09:03:20.058Z,100.00
2023-10-15T09:03:32.809Z,100.00
2023-10-15T09:03:45.825Z,100.00
2023-10-15T09:03:59.934Z,100.00
2023-10-15T09:04:13.812Z,100.00
2023-10-15T09:04:26.592Z,100.00
2023-10-15T09:04:38.828Z,100.00
2023-10-15T09:04:51.355Z,100.00
2023-10-15T09:05:04.144Z,100.00
2023-10-15T09:05:16.664Z,100.00
2023-10-15T09:05:29.701Z,100.00
2023-10-15T09:05:42.364Z,100.00
2023-10-15T09:05:56.033Z,100.00
2023-10-15T09:06:08.714Z,100.00
2023-10-15T09:06:21.459Z,100.00
2023-10-15T09:06:35.232Z,100.00
2023-10-15T09:06:48.804Z,100.00
2023-10-15T09:07:01.837Z,100.00
2023-10-15T09:07:15.183Z,100.00
2023-10-15T09:07:28.226Z,100.00
2023-10-15T09:07:40.740Z,100.00
2023-10-15T09:07:54.966Z,100.00
2023-10-15T09:08:09.082Z,100.00
2023-10-15T09:08:22.304Z,100.00
2023-10-15T09:08:34.740Z,100.00
2023-10-15T09:08:47.452Z,100.00
2023-10-15T09:08:59.711Z,100.00
2023-10-15T09:09:11.797Z,100.00
2023-10-15T09:09:23.841Z,100.00
2023-10-15T09:09:36.179Z,100.00
2023-10-15T09:09:49.725Z,100.00
2023-10-15T09:10:02.317Z,100.00
2023-10-15T09:10:15.944Z,100.00
2023-10-15T09:10:28.216Z,100.00
2023-10-15T09:10:41.931Z,100.00
2023-10-15T09:10:55.406Z,100.00
2023-10-15T09:11:07.707Z,100.00
2023-10-15T09:11:19.959Z,100.00
2023-10-15T09:11:32.173Z,100.00
2023-10-15T09:11:45.017Z,100.00
2023-10-15T09:11:58.295Z,100.00
2023-10-15T09:12:12.015Z,100.00
2023-10-15T09:12:24.342Z,100.00
2023-10-15T09:12:36.770Z,100.00
2023-10-15T09:12:49.170Z,100.00
2023-10-15T09:13:01.314Z,100.00
2023-10-15T09:13:14.464Z,100.00
2023-10-15T09:13:26.718Z,100.00
2023-10-15T09:13:39.252Z,100.00
2023-10-15T09:13:52.646Z,100.00
2023-10-15T09:14:05.128Z,100.00
2023-10-15T09:14:17.527Z,100.00
2023-10-15T09:14:39.586Z,100.00
2023-10-15T09:14:52.296Z,100.00
2023-10-15T09:15:09.215Z,100.00
2023-10-15T09:15:21.465Z,100.00
2023-10-15T09:15:40.149Z,100.00
2023-10-15T09:15:54.165Z,100.00
2023-10-15T09:16:07.904Z,100.00
2023-10-15T09:16:22.400Z,100.00
2023-10-15T09:16:36.578Z,100.00
2023-10-15T09:16:49.329Z,100.00
2023-10-15T09:17:01.781Z,100.00
2023-10-15T09:17:16.409Z,100.00
2023-10-15T09:17:29.155Z,100.00
2023-10-15T09:17:41.856Z,100.00
2023-10-15T09:17:56.930Z,100.00
2023-10-15T09:18:09.431Z,100.00
2023-10-15T09:18:22.188Z,100.00
2023-10-15T09:18:35.591Z,100.00
2023-10-15T09:18:48.728Z,100.00
2023-10-15T09:19:01.607Z,100.00
2023-10-15T09:19:13.994Z,100.00
2023-10-15T09:19:26.873Z,100.00
2023-10-15T09:19:40.397Z,100.00
2023-10-15T09:19:57.344Z,100.00
2023-10-15T09:20:14.300Z,100.00
2023-10-15T09:20:28.880Z,100.00
2023-10-15T09:20:43.957Z,100.00
2023-10-15T09:20:59.253Z,100.00
2023-10-15T09:21:12.104Z,100.00
2023-10-15T09:21:25.809Z,100.00
2023-10-15T09:21:38.560Z,100.00
2023-10-15T09:21:50.591Z,100.00
2023-10-15T09:22:02.805Z,100.00
2023-10-15T09:22:15.861Z,100.00
2023-10-15T09:22:30.375Z,100.00
2023-10-15T09:22:46.253Z,100.00
2023-10-15T09:23:09.314Z,100.00
2023-10-15T09:23:33.869Z,100.00
2023-10-15T09:23:47.007Z,100.00
2023-10-15T09:24:00.341Z,100.00
2023-10-15T09:24:13.272Z,100.00
2023-10-15T09:24:27.879Z,100.00
2023-10-15T09:24:47.156Z,100.00
2023-10-15T09:25:00.424Z,100.00
2023-10-15T09:25:13.325Z,100.00
2023-10-15T09:25:33.578Z,100.00
2023-10-15T09:25:46.680Z,100.00
2023-10-15T09:25:59.343Z,100.00
2023-10-15T09:26:25.860Z,100.00
2023-10-15T09:26:39.562Z,100.00
2023-10-15T09:26:51.429Z,100.00
2023-10-15T09:27:03.579Z,100.00
2023-10-15T09:27:15.670Z,100.00
2023-10-15T09:27:27.644Z,100.00
2023-10-15T09:27:46.958Z,100.00
2023-10-15T09:28:02.205Z,100.00
2023-10-15T09:28:14.507Z,100.00
2023-10-15T09:28:26.658Z,100.00
2023-10-15T09:28:38.850Z,100.00
2023-10-15T09:28:50.698Z,100.00
2023-10-15T09:29:02.860Z,100.00
2023-10-15T09:29:21.206Z,100.00
2023-10-15T09:29:33.430Z,100.00
2023-10-15T09:29:45.590Z,100.00
2023-10-15T09:30:06.761Z,100.00
2023-10-15T09:30:22.382Z,100.00
2023-10-15T09:30:34.235Z,100.00
2023-10-15T09:30:46.197Z,100.00
2023-10-15T09:31:04.808Z,100.00
2023-10-15T09:31:16.820Z,100.00
2023-10-15T09:31:28.775Z,100.00
2023-10-15T09:31:40.838Z,100.00
2023-10-15T09:31:52.797Z,100.00
2023-10-15T09:32:05.481Z,100.00
2023-10-15T09:32:17.432Z,100.00
2023-10-15T09:32:32.644Z,100.00
2023-10-15T09:32:44.769Z,100.00
2023-10-15T09:32:57.039Z,100.00
2023-10-15T09:33:09.002Z,100.00
2023-10-15T09:33:28.502Z,100.00
2023-10-15T09:33:41.208Z,100.00
2023-10-15T09:33:53.053Z,100.00
2023-10-15T09:34:05.345Z,100.00
2023-10-15T09:34:17.689Z,100.00
2023-10-15T09:34:30.276Z,100.00
2023-10-15T09:34:42.325Z,100.00
2023-10-15T09:34:54.533Z,100.00
2023-10-15T09:35:06.735Z,100.00
2023-10-15T09:35:18.982Z,100.00
2023-10-15T09:35:31.170Z,100.00
2023-10-15T09:35:43.008Z,100.00
2023-10-15T09:35:54.874Z,100.00
2023-10-15T09:36:07.256Z,100.00
2023-10-15T09:36:21.209Z,100.00
2023-10-15T09:36:36.255Z,100.00
2023-10-15T09:36:48.043Z,100.00
2023-10-15T09:37:00.294Z,100.00
2023-10-15T09:37:12.269Z,100.00
2023-10-15T09:37:26.178Z,100.00
2023-10-15T09:37:38.229Z,100.00
2023-10-15T09:37:50.668Z,100.00
2023-10-15T09:38:04.553Z,100.00
2023-10-15T09:38:16.618Z,100.00
2023-10-15T09:38:28.610Z,100.00
2023-10-15T09:38:40.548Z,100.00
2023-10-15T09:38:52.465Z,100.00
2023-10-15T09:39:05.733Z,100.00
2023-10-15T09:39:17.709Z,100.00
2023-10-15T09:39:30.117Z,100.00
2023-10-15T09:39:42.041Z,100.00
2023-10-15T09:39:54.051Z,100.00
2023-10-15T09:40:07.315Z,100.00
2023-10-15T09:40:19.560Z,100.00
2023-10-15T09:40:31.498Z,100.00
2023-10-15T09:40:43.822Z,100.00
2023-10-15T09:40:55.888Z,100.00
2023-10-15T09:41:08.120Z,100.00
2023-10-15T09:41:20.501Z,100.00
2023-10-15T09:41:32.524Z,100.00
2023-10-15T09:41:45.632Z,100.00
2023-10-15T09:41:58.199Z,100.00
2023-10-15T09:42:10.276Z,100.00
2023-10-15T09:42:22.857Z,100.00
2023-10-15T09:42:39.446Z,100.00
2023-10-15T09:42:52.352Z,100.00
2023-10-15T09:43:04.674Z,100.00
2023-10-15T09:43:17.466Z,100.00
2023-10-15T09:43:30.499Z,100.00
2023-10-15T09:43:44.489Z,100.00
2023-10-15T09:43:58.087Z,100.00
2023-10-15T09:44:10.928Z,100.00
2023-10-15T09:44:24.027Z,100.00
2023-10-15T09:44:36.540Z,100.00
2023-10-15T09:44:49.353Z,100.00
2023-10-15T09:45:06.030Z,100.00
2023-10-15T09:45:18.090Z,100.00
2023-10-15T09:45:30.308Z,100.00
2023-10-15T09:45:43.143Z,100.00
2023-10-15T09:45:55.654Z,100.00
2023-10-15T09:46:08.605Z,100.00
2023-10-15T09:46:22.038Z,100.00
2023-10-15T09:46:34.129Z,100.00
2023-10-15T09:46:46.586Z,100.00
2023-10-15T09:46:59.084Z,100.00
2023-10-15T09:47:11.653Z,100.00
2023-10-15T09:47:23.915Z,100.00
2023-10-15T09:47:36.804Z,100.00
2023-10-15T09:47:50.252Z,100.00
2023-10-15T09:48:03.374Z,100.00
2023-10-15T09:48:15.853Z,100.00
2023-10-15T09:48:28.420Z,100.00
2023-10-15T09:48:42.237Z,100.00
2023-10-15T09:48:54.685Z,100.00
2023-10-15T09:49:07.006Z,100.00
2023-10-15T09:49:19.960Z,100.00
2023-10-15T09:49:32.508Z,100.00
2023-10-15T09:49:45.354Z,100.00
2023-10-15T09:49:58.542Z,100.00
2023-10-15T09:50:11.511Z,100.00
2023-10-15T09:50:23.451Z,100.00
2023-10-15T09:50:37.579Z,100.00
2023-10-15T09:50:50.852Z,100.00
2023-10-15T09:51:03.054Z,100.00
2023-10-15T09:51:15.265Z,100.00
2023-10-15T09:51:28.035Z,100.00
2023-10-15T09:51:41.202Z,100.00
2023-10-15T09:51:53.352Z,100.00
2023-10-15T09:52:07.147Z,100.00
2023-10-15T09:52:19.669Z,100.00
2023-10-15T09:52:32.125Z,100.00
2023-10-15T09:52:46.398Z,100.00
2023-10-15T09:52:59.764Z,100.00
2023-10-15T09:53:14.454Z,100.00
2023-10-15T09:53:27.451Z,100.00
2023-10-15T09:53:40.727Z,100.00
2023-10-15T09:53:54.732Z,100.00
2023-10-15T09:54:07.992Z,100.00
2023-10-15T09:54:21.358Z,100.00
2023-10-15T09:54:34.147Z,100.00
2023-10-15T09:54:49.724Z,100.00
2023-10-15T09:55:03.181Z,100.00
2023-10-15T09:55:15.491Z,100.00
2023-10-15T09:55:29.648Z,100.00
2023-10-15T09:55:42.304Z,100.00
2023-10-15T09:55:55.354Z,100.00
2023-10-15T09:56:09.915Z,100.00
2023-10-15T09:56:23.920Z,100.00
2023-10-15T09:56:38.634Z,100.00
2023-10-15T09:56:51.372Z,100.00
2023-10-15T09:57:03.736Z,100.00
2023-10-15T09:57:18.153Z,100.00
2023-10-15T09:57:31.048Z,100.00
2023-10-15T09:57:43.659Z,100.00
2023-10-15T09:57:56.961Z,100.00
2023-10-15T09:58:10.988Z,100.00
2023-10-15T09:58:22.908Z,100.00
2023-10-15T09:58:34.836Z,100.00
2023-10-15T09:58:46.923Z,100.00
2023-10-15T09:58:59.142Z,100.00
2023-10-15T09:59:11.161Z,100.00
2023-10-15T09:59:23.182Z,100.00
2023-10-15T09:59:34.967Z,100.00
2023-10-15T09:59:48.999Z,100.00
2023-10-15T10:00:01.019Z,100.00
2023-10-15T10:00:14.846Z,100.00
2023-10-15T10:00:29.631Z,99.01
2023-10-15T10:00:45.338Z,95.39
2023-10-15T10:01:01.894Z,94.26
2023-10-15T10:01:16.494Z,94.29
2023-10-15T10:01:30.033Z,93.49
2023-10-15T10:01:47.880Z,93.40
2023-10-15T10:02:02.229Z,94.02
2023-10-15T10:02:21.213Z,93.47
2023-10-15T10:02:44.357Z,92.98
2023-10-15T10:03:10.600Z,94.01
2023-10-15T10:03:52.216Z,91.71
2023-10-15T10:04:25.842Z,93.44
2023-10-15T10:04:57.725Z,91.82
2023-10-15T10:05:22.281Z,92.27
2023-10-15T10:05:44.421Z,92.42
2023-10-15T10:06:05.715Z,92.40
2023-10-15T10:06:29.669Z,91.58
2023-10-15T10:07:10.796Z,90.54
2023-10-15T10:07:44.536Z,90.79
2023-10-15T10:08:07.666Z,89.23
2023-10-15T10:08:35.573Z,88.71
2023-10-15T10:09:05.804Z,87.98
2023-10-15T10:09:34.657Z,88.35
2023-10-15T10:10:14.799Z,86.60
2023-10-15T10:10:46.836Z,85.78
2023-10-15T10:11:16.523Z,86.61
2023-10-15T10:11:43.734Z,87.05
2023-10-15T10:12:14.374Z,86.71
2023-10-15T10:12:36.978Z,86.23
2023-10-15T10:13:07.121Z,85.92
2023-10-15T10:13:42.999Z,85.67
2023-10-15T10:14:13.707Z,85.78
2023-10-15T10:14:45.481Z,84.51
2023-10-15T10:15:12.717Z,84.79
2023-10-15T10:15:41.152Z,84.40
2023-10-15T10:15:54.228Z,84.45
2023-10-15T10:16:15.523Z,85.15
2023-10-15T10:16:29.705Z,84.83
2023-10-15T10:16:42.290Z,84.17
2023-10-15T10:16:54.927Z,84.56
2023-10-15T10:17:09.827Z,86.04
2023-10-15T10:17:23.266Z,85.77
2023-10-15T10:17:38.121Z,85.29
2023-10-15T10:17:51.629Z,86.06
2023-10-15T10:18:04.961Z,85.88
2023-10-15T10:18:17.321Z,85.66
2023-10-15T10:18:32.186Z,85.68
2023-10-15T10:18:45.331Z,85.99
2023-10-15T10:18:57.646Z,86.10
2023-10-15T10:19:10.614Z,86.14
2023-10-15T10:19:23.054Z,85.77